sensor_id;sensor_type;location;lat;lon;timestamp;pressure;altitude;pressure_sealevel;temperature;humidity
72892;BME280;61032;50.782;6.818;2023-07-30T00:00:50;99999.13;;;17.42;87.31
72892;BME280;61032;50.782;6.818;2023-07-30T00:01:51;99999.13;;;17.46;87.31
72892;BME280;61032;50.782;6.818;2023-07-30T00:02:51;99997.94;;;17.47;87.05
72892;BME280;61032;50.782;6.818;2023-07-30T00:03:51;99999.13;;;17.49;86.67
72892;BME280;61032;50.782;6.818;2023-07-30T00:04:51;99997.56;;;17.45;86.88
72892;BME280;61032;50.782;6.818;2023-07-30T00:05:53;100002.28;;;17.41;86.49
72892;BME280;61032;50.782;6.818;2023-07-30T00:06:54;99995.94;;;17.40;86.42
72892;BME280;61032;50.782;6.818;2023-07-30T00:07:54;100005.47;;;17.43;86.12
72892;BME280;61032;50.782;6.818;2023-07-30T00:08:55;100004.69;;;17.42;86.30
72892;BME280;61032;50.782;6.818;2023-07-30T00:09:55;100003.81;;;17.35;86.36
72892;BME280;61032;50.782;6.818;2023-07-30T00:10:58;100003.84;;;17.38;86.66
72892;BME280;61032;50.782;6.818;2023-07-30T00:11:58;100001.47;;;17.37;86.58
72892;BME280;61032;50.782;6.818;2023-07-30T00:12:59;99995.09;;;17.33;86.63
72892;BME280;61032;50.782;6.818;2023-07-30T00:13:59;99994.69;;;17.34;86.95
72892;BME280;61032;50.782;6.818;2023-07-30T00:14:59;99995.88;;;17.33;86.89
72892;BME280;61032;50.782;6.818;2023-07-30T00:16:00;99997.88;;;17.33;86.53
72892;BME280;61032;50.782;6.818;2023-07-30T00:17:00;100002.22;;;17.30;86.53
72892;BME280;61032;50.782;6.818;2023-07-30T00:18:01;100000.22;;;17.31;86.57
72892;BME280;61032;50.782;6.818;2023-07-30T00:19:01;100000.63;;;17.33;86.51
72892;BME280;61032;50.782;6.818;2023-07-30T00:20:02;100005.41;;;17.32;86.37
72892;BME280;61032;50.782;6.818;2023-07-30T00:21:03;100008.97;;;17.33;86.52
72892;BME280;61032;50.782;6.818;2023-07-30T00:22:03;100001.03;;;17.31;86.65
72892;BME280;61032;50.782;6.818;2023-07-30T00:23:03;100006.16;;;17.29;86.69
72892;BME280;61032;50.782;6.818;2023-07-30T00:24:04;100006.16;;;17.29;86.80
72892;BME280;61032;50.782;6.818;2023-07-30T00:25:05;100002.19;;;17.27;86.54
72892;BME280;61032;50.782;6.818;2023-07-30T00:26:05;100003.78;;;17.28;86.77
72892;BME280;61032;50.782;6.818;2023-07-30T00:27:06;100010.53;;;17.27;86.62
72892;BME280;61032;50.782;6.818;2023-07-30T00:28:06;100009.34;;;17.28;86.73
72892;BME280;61032;50.782;6.818;2023-07-30T00:29:07;100003.38;;;17.26;86.59
72892;BME280;61032;50.782;6.818;2023-07-30T00:30:07;100008.13;;;17.25;86.65
72892;BME280;61032;50.782;6.818;2023-07-30T00:31:08;100001.38;;;17.26;86.82
72892;BME280;61032;50.782;6.818;2023-07-30T00:32:08;100002.97;;;17.24;86.74
72892;BME280;61032;50.782;6.818;2023-07-30T00:33:09;100003.78;;;17.24;86.83
72892;BME280;61032;50.782;6.818;2023-07-30T00:34:09;100007.28;;;17.14;86.63
72892;BME280;61032;50.782;6.818;2023-07-30T00:35:10;100000.50;;;17.11;86.71
72892;BME280;61032;50.782;6.818;2023-07-30T00:36:10;100002.09;;;17.12;86.73
72892;BME280;61032;50.782;6.818;2023-07-30T00:37:10;100006.88;;;17.15;86.83
72892;BME280;61032;50.782;6.818;2023-07-30T00:38:11;100002.09;;;17.12;86.71
72892;BME280;61032;50.782;6.818;2023-07-30T00:39:11;99998.13;;;17.13;86.64
72892;BME280;61032;50.782;6.818;2023-07-30T00:40:12;100005.69;;;17.13;86.62
72892;BME280;61032;50.782;6.818;2023-07-30T00:41:12;100002.09;;;17.12;86.39
72892;BME280;61032;50.782;6.818;2023-07-30T00:42:12;100008.03;;;17.11;86.76
72892;BME280;61032;50.782;6.818;2023-07-30T00:43:12;100007.63;;;17.09;86.54
72892;BME280;61032;50.782;6.818;2023-07-30T00:44:13;100006.88;;;17.15;86.68
72892;BME280;61032;50.782;6.818;2023-07-30T00:45:13;100000.53;;;17.15;86.78
72892;BME280;61032;50.782;6.818;2023-07-30T00:46:13;99998.94;;;17.14;86.98
72892;BME280;61032;50.782;6.818;2023-07-30T00:47:14;100003.69;;;17.13;86.95
72892;BME280;61032;50.782;6.818;2023-07-30T00:48:14;100002.50;;;17.14;86.78
72892;BME280;61032;50.782;6.818;2023-07-30T00:49:14;99996.16;;;17.14;86.90
72892;BME280;61032;50.782;6.818;2023-07-30T00:50:16;99993.38;;;17.14;86.72
72892;BME280;61032;50.782;6.818;2023-07-30T00:51:17;99999.69;;;17.07;87.03
72892;BME280;61032;50.782;6.818;2023-07-30T00:52:18;100004.06;;;17.08;86.83
72892;BME280;61032;50.782;6.818;2023-07-30T00:53:22;100001.28;;;17.08;87.16
72892;BME280;61032;50.782;6.818;2023-07-30T00:54:24;100007.63;;;17.09;86.93
72892;BME280;61032;50.782;6.818;2023-07-30T00:55:25;100005.25;;;17.11;86.98
72892;BME280;61032;50.782;6.818;2023-07-30T00:56:26;100004.06;;;17.08;86.73
72892;BME280;61032;50.782;6.818;2023-07-30T00:57:27;100008.44;;;17.09;86.79
72892;BME280;61032;50.782;6.818;2023-07-30T00:58:27;100005.22;;;17.07;86.56
72892;BME280;61032;50.782;6.818;2023-07-30T00:59:27;100008.44;;;17.09;86.57
72892;BME280;61032;50.782;6.818;2023-07-30T01:00:28;100011.19;;;17.09;86.51
72892;BME280;61032;50.782;6.818;2023-07-30T01:01:33;100018.34;;;17.10;86.42
72892;BME280;61032;50.782;6.818;2023-07-30T01:02:36;100018.34;;;17.10;86.70
72892;BME280;61032;50.782;6.818;2023-07-30T01:03:37;100012.38;;;17.08;86.83
72892;BME280;61032;50.782;6.818;2023-07-30T01:04:37;100017.09;;;17.04;86.88
72892;BME280;61032;50.782;6.818;2023-07-30T01:05:39;100017.53;;;17.06;86.78
72892;BME280;61032;50.782;6.818;2023-07-30T01:06:39;100021.09;;;17.07;86.66
72892;BME280;61032;50.782;6.818;2023-07-30T01:07:40;100023.09;;;17.06;86.54
72892;BME280;61032;50.782;6.818;2023-07-30T01:08:40;100027.44;;;17.04;86.25
72892;BME280;61032;50.782;6.818;2023-07-30T01:09:41;100025.84;;;17.06;86.28
72892;BME280;61032;50.782;6.818;2023-07-30T01:10:42;100024.69;;;17.07;86.00
72892;BME280;61032;50.782;6.818;2023-07-30T01:11:43;100028.63;;;17.06;86.32
72892;BME280;61032;50.782;6.818;2023-07-30T01:12:44;100034.19;;;17.06;86.35
72892;BME280;61032;50.782;6.818;2023-07-30T01:13:45;100032.59;;;17.05;86.18
72892;BME280;61032;50.782;6.818;2023-07-30T01:14:46;100035.38;;;17.02;86.21
72892;BME280;61032;50.782;6.818;2023-07-30T01:15:48;100035.34;;;16.98;86.46
72892;BME280;61032;50.782;6.818;2023-07-30T01:16:49;100038.53;;;17.00;86.40
72892;BME280;61032;50.782;6.818;2023-07-30T01:17:49;100029.78;;;16.98;86.24
72892;BME280;61032;50.782;6.818;2023-07-30T01:18:50;100038.88;;;16.95;86.23
72892;BME280;61032;50.782;6.818;2023-07-30T01:19:53;100037.69;;;16.96;86.27
72892;BME280;61032;50.782;6.818;2023-07-30T01:20:59;100038.53;;;17.00;86.46
72892;BME280;61032;50.782;6.818;2023-07-30T01:21:59;100036.94;;;16.99;86.53
72892;BME280;61032;50.782;6.818;2023-07-30T01:23:00;100044.84;;;16.97;86.35
72892;BME280;61032;50.782;6.818;2023-07-30T01:24:00;100037.69;;;16.96;86.18
72892;BME280;61032;50.782;6.818;2023-07-30T01:25:01;100035.34;;;16.98;86.41
72892;BME280;61032;50.782;6.818;2023-07-30T01:26:11;100043.31;;;17.03;86.02
72892;BME280;61032;50.782;6.818;2023-07-30T01:27:17;100046.44;;;16.98;85.92
72892;BME280;61032;50.782;6.818;2023-07-30T01:28:20;100046.72;;;16.86;86.40
72892;BME280;61032;50.782;6.818;2023-07-30T01:29:30;100041.53;;;16.81;87.33
72892;BME280;61032;50.782;6.818;2023-07-30T01:30:38;100038.78;;;16.84;87.36
72892;BME280;61032;50.782;6.818;2023-07-30T01:31:41;100038.44;;;16.90;86.80
72892;BME280;61032;50.782;6.818;2023-07-30T01:32:42;100040.09;;;16.98;86.70
72892;BME280;61032;50.782;6.818;2023-07-30T01:33:47;100043.28;;;17.00;86.34
72892;BME280;61032;50.782;6.818;2023-07-30T01:34:49;100038.53;;;17.00;86.11
72892;BME280;61032;50.782;6.818;2023-07-30T01:35:51;100042.53;;;17.03;85.94
72892;BME280;61032;50.782;6.818;2023-07-30T01:36:53;100040.47;;;16.96;85.85
72892;BME280;61032;50.782;6.818;2023-07-30T01:37:53;100039.25;;;16.94;86.12
72892;BME280;61032;50.782;6.818;2023-07-30T01:38:54;100040.13;;;17.01;86.22
72892;BME280;61032;50.782;6.818;2023-07-30T01:39:56;100039.34;;;17.04;85.60
72892;BME280;61032;50.782;6.818;2023-07-30T01:40:57;100042.56;;;17.10;85.38
72892;BME280;61032;50.782;6.818;2023-07-30T01:41:57;100041.34;;;17.07;84.96
72892;BME280;61032;50.782;6.818;2023-07-30T01:42:58;100045.72;;;17.08;85.18
72892;BME280;61032;50.782;6.818;2023-07-30T01:43:58;100039.41;;;17.11;85.14
72892;BME280;61032;50.782;6.818;2023-07-30T01:44:59;100037.84;;;17.14;85.03
72892;BME280;61032;50.782;6.818;2023-07-30T01:45:59;100034.31;;;17.21;84.61
72892;BME280;61032;50.782;6.818;2023-07-30T01:46:59;100038.72;;;17.29;83.98
72892;BME280;61032;50.782;6.818;2023-07-30T01:48:00;100033.94;;;17.26;83.38
72892;BME280;61032;50.782;6.818;2023-07-30T01:49:00;100037.94;;;17.32;82.74
72892;BME280;61032;50.782;6.818;2023-07-30T01:50:00;100030.81;;;17.34;81.88
72892;BME280;61032;50.782;6.818;2023-07-30T01:51:01;100042.34;;;17.36;81.94
72892;BME280;61032;50.782;6.818;2023-07-30T01:52:01;100048.72;;;17.37;81.74
72892;BME280;61032;50.782;6.818;2023-07-30T01:53:01;100040.38;;;17.37;81.89
72892;BME280;61032;50.782;6.818;2023-07-30T01:54:02;100043.16;;;17.37;81.75
72892;BME280;61032;50.782;6.818;2023-07-30T01:55:02;100043.06;;;17.26;80.91
72892;BME280;61032;50.782;6.818;2023-07-30T01:56:03;100046.63;;;17.27;80.99
72892;BME280;61032;50.782;6.818;2023-07-30T01:57:03;100041.91;;;17.31;80.82
72892;BME280;61032;50.782;6.818;2023-07-30T01:58:04;100041.91;;;17.31;80.68
72892;BME280;61032;50.782;6.818;2023-07-30T01:59:04;100047.47;;;17.31;80.73
72892;BME280;61032;50.782;6.818;2023-07-30T02:00:05;100043.50;;;17.32;80.48
72892;BME280;61032;50.782;6.818;2023-07-30T02:01:06;100053.03;;;17.31;79.98
72892;BME280;61032;50.782;6.818;2023-07-30T02:02:06;100050.63;;;17.29;79.64
72892;BME280;61032;50.782;6.818;2023-07-30T02:03:07;100051.84;;;17.32;79.64
72892;BME280;61032;50.782;6.818;2023-07-30T02:04:07;100057.41;;;17.32;79.64
72892;BME280;61032;50.782;6.818;2023-07-30T02:05:07;100050.66;;;17.33;78.93
72892;BME280;61032;50.782;6.818;2023-07-30T02:06:08;100050.25;;;17.31;78.91
72892;BME280;61032;50.782;6.818;2023-07-30T02:07:08;100050.16;;;17.16;78.14
72892;BME280;61032;50.782;6.818;2023-07-30T02:08:08;100041.44;;;17.18;78.48
72892;BME280;61032;50.782;6.818;2023-07-30T02:09:09;100041.84;;;17.20;78.23
72892;BME280;61032;50.782;6.818;2023-07-30T02:10:09;100042.69;;;17.24;78.25
72892;BME280;61032;50.782;6.818;2023-07-30T02:11:09;100047.81;;;17.26;78.05
72892;BME280;61032;50.782;6.818;2023-07-30T02:12:10;100050.59;;;17.26;78.04
72892;BME280;61032;50.782;6.818;2023-07-30T02:13:11;100045.47;;;17.28;78.06
72892;BME280;61032;50.782;6.818;2023-07-30T02:14:14;100049.78;;;17.18;77.94
72892;BME280;61032;50.782;6.818;2023-07-30T02:15:15;100039.88;;;17.21;78.19
72892;BME280;61032;50.782;6.818;2023-07-30T02:16:15;100043.84;;;17.20;78.28
72892;BME280;61032;50.782;6.818;2023-07-30T02:17:15;100040.69;;;17.25;78.41
72892;BME280;61032;50.782;6.818;2023-07-30T02:18:16;100041.50;;;17.29;78.54
72892;BME280;61032;50.782;6.818;2023-07-30T02:19:16;100041.13;;;17.30;78.14
72892;BME280;61032;50.782;6.818;2023-07-30T02:20:16;100036.31;;;17.24;77.94
72892;BME280;61032;50.782;6.818;2023-07-30T02:21:17;100037.91;;;17.25;77.97
72892;BME280;61032;50.782;6.818;2023-07-30T02:22:17;100039.91;;;17.28;78.30
72892;BME280;61032;50.782;6.818;2023-07-30T02:23:17;100039.50;;;17.29;78.08
72892;BME280;61032;50.782;6.818;2023-07-30T02:24:18;100039.94;;;17.31;77.85
72892;BME280;61032;50.782;6.818;2023-07-30T02:25:18;100039.16;;;17.34;77.87
72892;BME280;61032;50.782;6.818;2023-07-30T02:26:19;100038.38;;;17.37;77.75
72892;BME280;61032;50.782;6.818;2023-07-30T02:27:19;100040.38;;;17.37;77.51
72892;BME280;61032;50.782;6.818;2023-07-30T02:28:19;100039.56;;;17.36;77.52
72892;BME280;61032;50.782;6.818;2023-07-30T02:29:20;100036.41;;;17.38;77.50
72892;BME280;61032;50.782;6.818;2023-07-30T02:30:20;100039.56;;;17.36;77.43
72892;BME280;61032;50.782;6.818;2023-07-30T02:31:21;100037.19;;;17.35;77.39
72892;BME280;61032;50.782;6.818;2023-07-30T02:32:21;100035.56;;;17.30;77.48
72892;BME280;61032;50.782;6.818;2023-07-30T02:33:21;100030.38;;;17.29;77.36
72892;BME280;61032;50.782;6.818;2023-07-30T02:34:21;100031.19;;;17.29;77.15
72892;BME280;61032;50.782;6.818;2023-07-30T02:35:22;100029.97;;;17.27;77.00
72892;BME280;61032;50.782;6.818;2023-07-30T02:36:23;100032.75;;;17.27;77.32
72892;BME280;61032;50.782;6.818;2023-07-30T02:37:24;100036.31;;;17.27;77.29
72892;BME280;61032;50.782;6.818;2023-07-30T02:38:24;100031.16;;;17.26;76.97
72892;BME280;61032;50.782;6.818;2023-07-30T02:39:24;100034.31;;;17.21;77.33
72892;BME280;61032;50.782;6.818;2023-07-30T02:40:24;100031.53;;;17.21;77.66
72892;BME280;61032;50.782;6.818;2023-07-30T02:41:25;100033.53;;;17.20;77.77
72892;BME280;61032;50.782;6.818;2023-07-30T02:42:25;100038.66;;;17.18;77.57
72892;BME280;61032;50.782;6.818;2023-07-30T02:43:25;100046.63;;;17.20;77.69
72892;BME280;61032;50.782;6.818;2023-07-30T02:44:26;100039.47;;;17.18;77.83
72892;BME280;61032;50.782;6.818;2023-07-30T02:45:26;100042.25;;;17.18;77.99
72892;BME280;61032;50.782;6.818;2023-07-30T02:46:26;100038.63;;;17.14;78.01
72892;BME280;61032;50.782;6.818;2023-07-30T02:47:27;100042.59;;;17.13;78.34
72892;BME280;61032;50.782;6.818;2023-07-30T02:48:27;100042.16;;;17.11;78.22
72892;BME280;61032;50.782;6.818;2023-07-30T02:49:27;100034.22;;;17.10;78.17
72892;BME280;61032;50.782;6.818;2023-07-30T02:50:27;100041.34;;;17.07;78.38
72892;BME280;61032;50.782;6.818;2023-07-30T02:51:28;100038.56;;;17.04;78.72
72892;BME280;61032;50.782;6.818;2023-07-30T02:52:28;100039.34;;;17.04;78.90
72892;BME280;61032;50.782;6.818;2023-07-30T02:53:28;100044.88;;;17.04;79.02
72892;BME280;61032;50.782;6.818;2023-07-30T02:54:29;100040.13;;;17.01;78.87
72892;BME280;61032;50.782;6.818;2023-07-30T02:55:30;100036.94;;;16.99;79.39
72892;BME280;61032;50.782;6.818;2023-07-30T02:56:30;100043.22;;;16.93;79.50
72892;BME280;61032;50.782;6.818;2023-07-30T02:57:30;100039.28;;;16.97;79.72
72892;BME280;61032;50.782;6.818;2023-07-30T02:58:30;100035.34;;;16.98;80.02
72892;BME280;61032;50.782;6.818;2023-07-30T02:59:31;100036.53;;;16.97;80.29
72892;BME280;61032;50.782;6.818;2023-07-30T03:00:31;100048.00;;;16.96;80.80
72892;BME280;61032;50.782;6.818;2023-07-30T03:01:31;100053.56;;;16.96;81.11
72892;BME280;61032;50.782;6.818;2023-07-30T03:02:32;100045.63;;;16.94;81.53
72892;BME280;61032;50.782;6.818;2023-07-30T03:03:32;100053.53;;;16.92;81.95
72892;BME280;61032;50.782;6.818;2023-07-30T03:04:33;100051.56;;;16.93;82.26
72892;BME280;61032;50.782;6.818;2023-07-30T03:05:33;100048.75;;;16.89;82.52
72892;BME280;61032;50.782;6.818;2023-07-30T03:06:33;100055.06;;;16.86;83.23
72892;BME280;61032;50.782;6.818;2023-07-30T03:07:34;100059.44;;;16.87;83.73
72892;BME280;61032;50.782;6.818;2023-07-30T03:08:35;100059.81;;;16.86;83.60
72892;BME280;61032;50.782;6.818;2023-07-30T03:09:36;100059.44;;;16.87;83.98
72892;BME280;61032;50.782;6.818;2023-07-30T03:10:36;100069.31;;;16.84;84.00
72892;BME280;61032;50.782;6.818;2023-07-30T03:11:37;100059.44;;;16.87;84.21
72892;BME280;61032;50.782;6.818;2023-07-30T03:12:37;100066.97;;;16.87;84.32
72892;BME280;61032;50.782;6.818;2023-07-30T03:13:37;100061.03;;;16.88;84.17
72892;BME280;61032;50.782;6.818;2023-07-30T03:14:37;100070.94;;;16.89;83.81
72892;BME280;61032;50.782;6.818;2023-07-30T03:15:38;100065.81;;;16.91;84.03
72892;BME280;61032;50.782;6.818;2023-07-30T03:16:38;100076.88;;;16.88;83.56
72892;BME280;61032;50.782;6.818;2023-07-30T03:17:38;100072.91;;;16.85;82.90
72892;BME280;61032;50.782;6.818;2023-07-30T03:18:39;100068.94;;;16.86;82.49
72892;BME280;61032;50.782;6.818;2023-07-30T03:19:39;100066.97;;;16.87;82.16
72892;BME280;61032;50.782;6.818;2023-07-30T03:20:39;100074.13;;;16.88;82.09
72892;BME280;61032;50.782;6.818;2023-07-30T03:21:40;100073.69;;;16.86;81.42
72892;BME280;61032;50.782;6.818;2023-07-30T03:22:40;100076.47;;;16.86;81.19
72892;BME280;61032;50.782;6.818;2023-07-30T03:23:40;100079.66;;;16.88;81.05
72892;BME280;61032;50.782;6.818;2023-07-30T03:24:46;100074.91;;;16.88;80.35
72892;BME280;61032;50.782;6.818;2023-07-30T03:25:46;100076.09;;;16.87;80.45
72892;BME280;61032;50.782;6.818;2023-07-30T03:26:46;100083.63;;;16.87;80.21
72892;BME280;61032;50.782;6.818;2023-07-30T03:27:47;100078.09;;;16.90;80.08
72892;BME280;61032;50.782;6.818;2023-07-30T03:28:47;100076.09;;;16.87;79.65
72892;BME280;61032;50.782;6.818;2023-07-30T03:29:47;100081.22;;;16.85;79.54
72892;BME280;61032;50.782;6.818;2023-07-30T03:30:48;100082.81;;;16.86;79.43
72892;BME280;61032;50.782;6.818;2023-07-30T03:31:48;100076.50;;;16.89;79.48
72892;BME280;61032;50.782;6.818;2023-07-30T03:32:48;100077.69;;;16.88;79.34
72892;BME280;61032;50.782;6.818;2023-07-30T03:33:49;100077.28;;;16.86;79.30
72892;BME280;61032;50.782;6.818;2023-07-30T03:34:49;100079.63;;;16.80;78.83
72892;BME280;61032;50.782;6.818;2023-07-30T03:35:49;100085.59;;;16.82;78.77
72892;BME280;61032;50.782;6.818;2023-07-30T03:36:49;100082.41;;;16.84;78.71
72892;BME280;61032;50.782;6.818;2023-07-30T03:37:51;100083.28;;;16.92;78.37
72892;BME280;61032;50.782;6.818;2023-07-30T03:38:51;100081.66;;;16.87;78.14
72892;BME280;61032;50.782;6.818;2023-07-30T03:39:51;100084.91;;;16.96;77.39
72892;BME280;61032;50.782;6.818;2023-07-30T03:40:52;100080.56;;;16.99;77.15
72892;BME280;61032;50.782;6.818;2023-07-30T03:41:52;100078.06;;;16.87;77.70
72892;BME280;61032;50.782;6.818;2023-07-30T03:42:53;100080.88;;;16.90;77.48
72892;BME280;61032;50.782;6.818;2023-07-30T03:43:53;100076.03;;;16.80;77.07
72892;BME280;61032;50.782;6.818;2023-07-30T03:44:54;100074.78;;;16.74;77.56
72892;BME280;61032;50.782;6.818;2023-07-30T03:45:54;100083.53;;;16.76;77.69
72892;BME280;61032;50.782;6.818;2023-07-30T03:46:54;100083.91;;;16.74;77.69
72892;BME280;61032;50.782;6.818;2023-07-30T03:47:55;100080.34;;;16.74;77.95
72892;BME280;61032;50.782;6.818;2023-07-30T03:48:55;100090.28;;;16.75;78.01
72892;BME280;61032;50.782;6.818;2023-07-30T03:49:55;100085.56;;;16.79;77.78
72892;BME280;61032;50.782;6.818;2023-07-30T03:50:56;100080.41;;;16.81;77.54
72892;BME280;61032;50.782;6.818;2023-07-30T03:51:56;100088.34;;;16.79;77.05
72892;BME280;61032;50.782;6.818;2023-07-30T03:52:56;100085.59;;;16.82;77.06
72892;BME280;61032;50.782;6.818;2023-07-30T03:53:58;100083.63;;;16.87;76.26
72892;BME280;61032;50.782;6.818;2023-07-30T03:54:58;100097.09;;;16.84;75.49
72892;BME280;61032;50.782;6.818;2023-07-30T03:55:58;100090.75;;;16.84;75.17
72892;BME280;61032;50.782;6.818;2023-07-30T03:56:59;100091.53;;;16.84;75.32
72892;BME280;61032;50.782;6.818;2023-07-30T03:57:59;100089.56;;;16.85;75.31
72892;BME280;61032;50.782;6.818;2023-07-30T03:58:59;100096.28;;;16.80;75.15
72892;BME280;61032;50.782;6.818;2023-07-30T04:00:00;100095.47;;;16.80;74.48
72892;BME280;61032;50.782;6.818;2023-07-30T04:01:00;100095.41;;;16.73;74.74
72892;BME280;61032;50.782;6.818;2023-07-30T04:02:01;100096.91;;;16.67;74.48
72892;BME280;61032;50.782;6.818;2023-07-30T04:03:01;100099.63;;;16.60;74.97
72892;BME280;61032;50.782;6.818;2023-07-30T04:04:01;100102.31;;;16.53;75.13
72892;BME280;61032;50.782;6.818;2023-07-30T04:05:02;100103.91;;;16.54;75.01
72892;BME280;61032;50.782;6.818;2023-07-30T04:06:02;100101.59;;;16.59;75.05
72892;BME280;61032;50.782;6.818;2023-07-30T04:07:03;100104.38;;;16.59;75.27
72892;BME280;61032;50.782;6.818;2023-07-30T04:08:03;100109.91;;;16.59;75.37
72892;BME280;61032;50.782;6.818;2023-07-30T04:09:04;100104.00;;;16.61;75.37
72892;BME280;61032;50.782;6.818;2023-07-30T04:10:05;100102.06;;;16.65;75.28
72892;BME280;61032;50.782;6.818;2023-07-30T04:11:06;100104.00;;;16.61;75.63
72892;BME280;61032;50.782;6.818;2023-07-30T04:12:06;100101.59;;;16.63;75.33
72892;BME280;61032;50.782;6.818;2023-07-30T04:13:06;100102.44;;;16.63;75.10
72892;BME280;61032;50.782;6.818;2023-07-30T04:14:08;100108.78;;;16.64;75.13
72892;BME280;61032;50.782;6.818;2023-07-30T04:15:09;100105.88;;;16.53;75.06
72892;BME280;61032;50.782;6.818;2023-07-30T04:16:09;100111.75;;;16.48;74.36
72892;BME280;61032;50.782;6.818;2023-07-30T04:17:09;100107.84;;;16.53;74.20
72892;BME280;61032;50.782;6.818;2023-07-30T04:18:10;100109.50;;;16.57;74.31
72892;BME280;61032;50.782;6.818;2023-07-30T04:19:10;100108.75;;;16.60;74.27
72892;BME280;61032;50.782;6.818;2023-07-30T04:20:10;100111.94;;;16.62;74.35
72892;BME280;61032;50.782;6.818;2023-07-30T04:21:11;100111.56;;;16.64;74.19
72892;BME280;61032;50.782;6.818;2023-07-30T04:22:11;100103.19;;;16.60;74.26
72892;BME280;61032;50.782;6.818;2023-07-30T04:23:11;100108.34;;;16.62;74.21
72892;BME280;61032;50.782;6.818;2023-07-30T04:24:12;100106.38;;;16.62;74.19
72892;BME280;61032;50.782;6.818;2023-07-30T04:25:12;100108.44;;;16.69;74.02
72892;BME280;61032;50.782;6.818;2023-07-30T04:26:12;100109.94;;;16.63;73.71
72892;BME280;61032;50.782;6.818;2023-07-30T04:27:13;100103.94;;;16.57;74.37
72892;BME280;61032;50.782;6.818;2023-07-30T04:28:13;100111.13;;;16.62;74.02
72892;BME280;61032;50.782;6.818;2023-07-30T04:29:13;100108.78;;;16.64;74.58
72892;BME280;61032;50.782;6.818;2023-07-30T04:30:15;100105.53;;;16.58;73.77
72892;BME280;61032;50.782;6.818;2023-07-30T04:31:15;100106.00;;;16.64;74.02
72892;BME280;61032;50.782;6.818;2023-07-30T04:32:15;100106.88;;;16.71;73.91
72892;BME280;61032;50.782;6.818;2023-07-30T04:33:16;100114.34;;;16.64;73.76
72892;BME280;61032;50.782;6.818;2023-07-30T04:34:16;100111.22;;;16.69;73.93
72892;BME280;61032;50.782;6.818;2023-07-30T04:35:16;100109.66;;;16.71;73.96
72892;BME280;61032;50.782;6.818;2023-07-30T04:36:17;100114.41;;;16.71;73.90
72892;BME280;61032;50.782;6.818;2023-07-30T04:37:17;100112.03;;;16.69;74.42
72892;BME280;61032;50.782;6.818;2023-07-30T04:38:17;100106.44;;;16.66;73.70
72892;BME280;61032;50.782;6.818;2023-07-30T04:39:18;100107.97;;;16.63;73.78
72892;BME280;61032;50.782;6.818;2023-07-30T04:40:18;100113.63;;;16.70;73.75
72892;BME280;61032;50.782;6.818;2023-07-30T04:41:18;100105.28;;;16.70;73.58
72892;BME280;61032;50.782;6.818;2023-07-30T04:42:19;100106.50;;;16.73;73.54
72892;BME280;61032;50.782;6.818;2023-07-30T04:43:19;100104.91;;;16.72;73.34
72892;BME280;61032;50.782;6.818;2023-07-30T04:44:19;100107.34;;;16.77;73.26
72892;BME280;61032;50.782;6.818;2023-07-30T04:45:20;100105.34;;;16.74;73.43
72892;BME280;61032;50.782;6.818;2023-07-30T04:46:20;100106.50;;;16.73;73.79
72892;BME280;61032;50.782;6.818;2023-07-30T04:47:20;100106.94;;;16.75;73.82
72892;BME280;61032;50.782;6.818;2023-07-30T04:48:20;100110.13;;;16.77;73.67
72892;BME280;61032;50.782;6.818;2023-07-30T04:49:21;100101.03;;;16.80;73.64
72892;BME280;61032;50.782;6.818;2023-07-30T04:50:21;100102.59;;;16.77;74.15
72892;BME280;61032;50.782;6.818;2023-07-30T04:51:21;100105.03;;;16.86;73.81
72892;BME280;61032;50.782;6.818;2023-07-30T04:52:22;100108.63;;;16.87;73.47
72892;BME280;61032;50.782;6.818;2023-07-30T04:53:22;100099.47;;;16.86;73.69
72892;BME280;61032;50.782;6.818;2023-07-30T04:54:22;100112.19;;;16.87;73.80
72892;BME280;61032;50.782;6.818;2023-07-30T04:55:22;100113.00;;;16.88;73.79
72892;BME280;61032;50.782;6.818;2023-07-30T04:56:23;100109.00;;;16.85;73.81
72892;BME280;61032;50.782;6.818;2023-07-30T04:57:25;100107.34;;;16.77;74.44
72892;BME280;61032;50.782;6.818;2023-07-30T04:58:26;100109.41;;;16.87;74.26
72892;BME280;61032;50.782;6.818;2023-07-30T04:59:26;100104.28;;;16.89;74.11
72892;BME280;61032;50.782;6.818;2023-07-30T05:00:26;100111.38;;;16.83;74.44
72892;BME280;61032;50.782;6.818;2023-07-30T05:01:27;100115.69;;;16.77;74.82
72892;BME280;61032;50.782;6.818;2023-07-30T05:02:27;100107.81;;;16.82;74.59
72892;BME280;61032;50.782;6.818;2023-07-30T05:03:28;100113.78;;;16.88;74.60
72892;BME280;61032;50.782;6.818;2023-07-30T05:04:28;100113.03;;;16.91;74.23
72892;BME280;61032;50.782;6.818;2023-07-30T05:05:28;100105.16;;;16.97;74.07
72892;BME280;61032;50.782;6.818;2023-07-30T05:06:28;100105.59;;;17.02;73.95
72892;BME280;61032;50.782;6.818;2023-07-30T05:07:29;100111.09;;;16.95;74.05
72892;BME280;61032;50.782;6.818;2023-07-30T05:08:29;100112.28;;;16.94;74.54
72892;BME280;61032;50.782;6.818;2023-07-30T05:09:29;100111.50;;;16.97;74.39
72892;BME280;61032;50.782;6.818;2023-07-30T05:10:30;100112.34;;;17.01;74.34
72892;BME280;61032;50.782;6.818;2023-07-30T05:11:30;100112.75;;;17.07;74.12
72892;BME280;61032;50.782;6.818;2023-07-30T05:12:30;100107.97;;;17.00;74.09
72892;BME280;61032;50.782;6.818;2023-07-30T05:13:31;100108.38;;;17.02;74.48
72892;BME280;61032;50.782;6.818;2023-07-30T05:14:31;100102.47;;;17.07;74.97
72892;BME280;61032;50.782;6.818;2023-07-30T05:15:31;100105.31;;;17.14;73.86
72892;BME280;61032;50.782;6.818;2023-07-30T05:16:32;100097.81;;;17.18;73.68
72892;BME280;61032;50.782;6.818;2023-07-30T05:17:32;100103.75;;;17.17;73.94